Johnson County (6A4)
Johnson County, TN
Field Elevation: 2240
Lat: 36°25.07N  Long: 81°49.51W
CTAF/Unicom Freq: 122.7000
   
    
Weather Advisories
4/16/2014 21:49 Z
Altimeter 30.27" Hg
Wind 210° @ 8 KT
Gusts --
Visibility 10 SM
Ceiling CLR
Temperature 13° C (55° F)
Dewpoint -9° C (16° F)
Relative Humidity 20%
Density Altitude --
Condensation Altitude 13,400 feet
  Wind and Runways
Indicated Runway = 24
History
 
 
More Info
All DigiWx sites map
 
Johnson County Airport FBO
 
Airport IQ 5010
(M01) General Dewitt Spain Airport
(3M3) Collegedale Muni
 
about DigiWx
 
FAA Disclaimer: The data displayed is for advisory purposes only and is not to be used for flight planning or operations. For official data, please call (not available) to hear the current automated AWOS voice message.
  METAR 6A4 162149Z AUTO 21008KT 10SM CLR 13/M09 A3027